createdAt,value
2023-02-15T00:01:24.499Z,226.95
2023-02-15T00:03:51.571Z,195.10
2023-02-15T00:06:18.671Z,244.00
2023-02-15T00:08:45.651Z,129.38
2023-02-15T00:11:15.004Z,169.32
2023-02-15T00:13:44.396Z,161.63
2023-02-15T00:16:13.183Z,143.80
2023-02-15T00:18:40.555Z,95.88
2023-02-15T00:21:09.496Z,197.27
2023-02-15T00:23:36.886Z,154.15
2023-02-15T00:26:13.277Z,213.73
2023-02-15T00:28:40.008Z,122.95
2023-02-15T00:31:08.498Z,73.68
2023-02-15T00:33:36.071Z,153.57
2023-02-15T00:36:03.766Z,91.07
2023-02-15T00:38:31.800Z,158.90
2023-02-15T00:41:00.788Z,79.32
2023-02-15T00:43:28.171Z,172.32
2023-02-15T00:45:55.111Z,99.78
2023-02-15T00:48:22.131Z,194.85
2023-02-15T00:50:54.084Z,153.23
2023-02-15T00:53:21.734Z,121.30
2023-02-15T00:55:48.906Z,142.05
2023-02-15T00:58:16.399Z,112.88
2023-02-15T01:00:45.665Z,245.60
2023-02-15T01:03:13.157Z,133.07
2023-02-15T01:05:39.968Z,268.58
2023-02-15T01:08:06.995Z,99.90
2023-02-15T01:10:35.608Z,112.10
2023-02-15T01:13:02.699Z,103.55
2023-02-15T01:15:29.504Z,144.25
2023-02-15T01:17:56.409Z,126.65
2023-02-15T01:20:28.715Z,92.60
2023-02-15T01:22:55.884Z,93.63
2023-02-15T01:25:24.076Z,202.77
2023-02-15T01:27:51.123Z,109.78
2023-02-15T01:30:18.078Z,139.43
2023-02-15T01:32:44.724Z,159.27
2023-02-15T01:35:11.832Z,115.78
2023-02-15T01:37:38.905Z,176.63
2023-02-15T01:40:08.789Z,204.98
2023-02-15T01:42:35.786Z,104.90
2023-02-15T01:45:05.355Z,93.63
2023-02-15T01:47:44.910Z,325.38
2023-02-15T01:50:19.005Z,264.65
2023-02-15T01:52:55.817Z,295.63
2023-02-15T01:55:25.981Z,88.55
2023-02-15T01:57:53.418Z,137.93
2023-02-15T02:00:20.490Z,69.78
2023-02-15T02:02:51.972Z,181.25
2023-02-15T02:05:18.784Z,155.32
2023-02-15T02:07:47.648Z,110.25
2023-02-15T02:10:17.549Z,77.97
2023-02-15T02:12:46.112Z,126.60
2023-02-15T02:15:14.189Z,269.25
2023-02-15T02:18:05.061Z,341.27
2023-02-15T02:21:03.129Z,103.35
2023-02-15T02:23:59.900Z,101.10
2023-02-15T02:26:56.620Z,73.78
2023-02-15T02:29:49.103Z,183.73
2023-02-15T02:32:38.844Z,107.47
2023-02-15T02:37:48.940Z,116.20
2023-02-15T02:40:31.286Z,139.10
2023-02-15T02:43:12.700Z,80.80
2023-02-15T02:45:50.504Z,79.60
2023-02-15T02:48:22.584Z,98.35
2023-02-15T02:50:49.298Z,130.95
2023-02-15T02:53:15.880Z,255.32
2023-02-15T02:55:49.274Z,233.80
2023-02-15T02:58:26.039Z,102.03
2023-02-15T03:01:15.327Z,104.20
2023-02-15T03:04:03.275Z,80.38
2023-02-15T03:06:52.809Z,167.90
2023-02-15T03:09:45.592Z,76.85
2023-02-15T03:12:16.863Z,85.28
2023-02-15T03:14:45.997Z,75.05
2023-02-15T03:17:14.317Z,149.52
2023-02-15T03:19:43.376Z,82.60
2023-02-15T03:22:22.224Z,92.53
2023-02-15T03:24:57.658Z,101.10
2023-02-15T03:27:28.979Z,111.40
2023-02-15T03:29:59.161Z,120.70
2023-02-15T03:32:29.185Z,159.68
2023-02-15T03:34:56.507Z,143.68
2023-02-15T03:37:41.466Z,96.50
2023-02-15T03:40:50.613Z,123.70
2023-02-15T03:43:32.695Z,104.15
2023-02-15T03:46:18.495Z,124.15
2023-02-15T03:48:52.185Z,169.20
2023-02-15T03:51:38.761Z,85.90
2023-02-15T03:54:09.971Z,80.13
2023-02-15T03:57:03.539Z,79.85
2023-02-15T03:59:48.990Z,99.85
2023-02-15T04:02:24.746Z,71.18
2023-02-15T04:04:51.337Z,92.97
2023-02-15T04:07:17.998Z,183.48
2023-02-15T04:10:03.618Z,141.70
2023-02-15T04:12:30.194Z,125.13
2023-02-15T04:15:15.801Z,194.10
2023-02-15T04:17:42.381Z,109.85
2023-02-15T04:20:28.484Z,92.45
2023-02-15T04:23:13.700Z,127.40
2023-02-15T04:25:40.350Z,152.93
2023-02-15T04:28:08.533Z,118.95
2023-02-15T04:30:35.174Z,91.20
2023-02-15T04:33:01.813Z,115.75
2023-02-15T04:35:28.494Z,90.00
2023-02-15T04:37:56.814Z,94.90
2023-02-15T04:40:23.536Z,117.57
2023-02-15T04:42:50.314Z,93.15
2023-02-15T04:45:18.024Z,104.05
2023-02-15T04:47:44.918Z,143.23
2023-02-15T04:50:11.958Z,100.03
2023-02-15T04:52:38.585Z,137.45
2023-02-15T04:55:05.632Z,123.25
2023-02-15T04:57:32.335Z,126.13
2023-02-15T05:00:00.030Z,101.70
2023-02-15T05:02:26.799Z,101.22
2023-02-15T05:04:53.495Z,107.50
2023-02-15T05:07:21.368Z,115.50
2023-02-15T05:09:48.253Z,189.65
2023-02-15T05:12:14.894Z,181.30
2023-02-15T05:14:41.517Z,232.00
2023-02-15T05:17:08.269Z,241.05
2023-02-15T05:19:34.850Z,105.07
2023-02-15T05:22:01.574Z,104.65
2023-02-15T05:24:46.915Z,120.70
2023-02-15T05:27:32.316Z,139.82
2023-02-15T05:29:58.953Z,127.10
2023-02-15T05:32:25.715Z,461.95
2023-02-15T05:34:52.444Z,101.22
2023-02-15T05:37:19.026Z,142.02
2023-02-15T05:39:45.647Z,103.90
2023-02-15T05:42:12.293Z,121.20
2023-02-15T05:44:39.011Z,188.35
2023-02-15T05:47:08.057Z,226.20
2023-02-15T05:49:34.769Z,144.95
2023-02-15T05:52:01.396Z,401.17
2023-02-15T05:54:28.693Z,310.13
2023-02-15T05:56:55.405Z,352.27
2023-02-15T05:59:22.107Z,223.15
2023-02-15T06:01:48.724Z,232.77
2023-02-15T06:04:15.364Z,280.02
2023-02-15T06:06:41.998Z,255.82
2023-02-15T06:09:08.631Z,168.52
2023-02-15T06:11:35.228Z,236.48
2023-02-15T06:14:01.913Z,192.85
2023-02-15T06:16:28.648Z,218.18
2023-02-15T06:18:55.283Z,403.48
2023-02-15T06:21:21.842Z,461.88
2023-02-15T06:23:48.470Z,597.38
2023-02-15T06:26:15.102Z,559.30
2023-02-15T06:28:42.133Z,288.17
2023-02-15T06:31:08.962Z,294.98
2023-02-15T06:33:36.209Z,219.07
2023-02-15T06:36:04.885Z,483.10
2023-02-15T06:38:31.843Z,260.00
2023-02-15T06:40:58.621Z,173.70
2023-02-15T06:43:25.285Z,435.80
2023-02-15T06:45:51.991Z,422.33
2023-02-15T06:48:18.636Z,404.17
2023-02-15T06:50:45.384Z,355.40
2023-02-15T06:53:11.979Z,367.65
2023-02-15T06:55:38.551Z,626.50
2023-02-15T06:58:05.309Z,399.65
2023-02-15T07:00:31.946Z,330.83
2023-02-15T07:02:59.365Z,442.55
2023-02-15T07:05:31.910Z,210.90
2023-02-15T07:07:59.512Z,410.38
2023-02-15T07:10:26.461Z,444.65
2023-02-15T07:12:53.507Z,642.25
2023-02-15T07:15:23.938Z,287.00
2023-02-15T07:17:51.177Z,275.60
2023-02-15T07:20:21.134Z,813.53
2023-02-15T07:22:47.963Z,377.45
2023-02-15T07:25:14.698Z,417.15
2023-02-15T07:27:41.813Z,328.10
2023-02-15T07:30:11.388Z,195.18
2023-02-15T07:32:58.174Z,381.45
2023-02-15T07:35:25.002Z,462.52
2023-02-15T07:37:51.763Z,500.50
2023-02-15T07:40:18.565Z,396.75
2023-02-15T07:42:45.135Z,249.50
2023-02-15T07:45:11.866Z,199.20
2023-02-15T07:47:38.447Z,530.00
2023-02-15T07:50:05.636Z,280.25
2023-02-15T07:52:32.271Z,264.52
2023-02-15T07:54:58.911Z,317.55
2023-02-15T07:57:25.529Z,539.60
2023-02-15T07:59:52.206Z,455.10
2023-02-15T08:02:18.769Z,102.78
2023-02-15T08:04:45.386Z,310.95
2023-02-15T08:07:12.129Z,284.60
2023-02-15T08:09:38.727Z,302.52
2023-02-15T08:12:05.834Z,496.75
2023-02-15T08:14:33.272Z,289.90
2023-02-15T08:17:03.621Z,308.38
2023-02-15T08:19:32.568Z,252.05
2023-02-15T08:22:01.580Z,440.63
2023-02-15T08:24:30.979Z,234.60
2023-02-15T08:26:58.226Z,285.38
2023-02-15T08:29:27.645Z,419.67
2023-02-15T08:31:59.670Z,334.73
2023-02-15T08:34:26.541Z,438.95
2023-02-15T08:36:53.175Z,334.17
2023-02-15T08:39:19.841Z,286.27
2023-02-15T08:41:48.195Z,276.90
2023-02-15T08:44:17.208Z,272.08
2023-02-15T08:46:45.674Z,196.98
2023-02-15T08:49:15.994Z,406.90
2023-02-15T08:51:43.242Z,188.65
2023-02-15T08:54:13.345Z,243.70
2023-02-15T08:56:41.734Z,285.33
2023-02-15T08:59:14.120Z,297.33
2023-02-15T09:01:40.750Z,62.55
2023-02-15T09:04:11.480Z,71.38
2023-02-15T09:06:39.567Z,267.30
2023-02-15T09:09:07.543Z,129.27
2023-02-15T09:11:37.772Z,181.80
2023-02-15T09:14:08.106Z,268.98
2023-02-15T09:16:36.895Z,419.85
2023-02-15T09:19:05.649Z,138.23
2023-02-15T09:21:34.136Z,264.03
2023-02-15T09:24:03.661Z,423.50
2023-02-15T09:26:32.109Z,379.38
2023-02-15T09:29:04.810Z,564.40
2023-02-15T09:31:34.720Z,392.50
2023-02-15T09:34:02.707Z,220.82
2023-02-15T09:36:34.460Z,169.93
2023-02-15T09:39:11.971Z,78.22
2023-02-15T09:42:10.269Z,124.05
2023-02-15T09:44:58.971Z,306.73
2023-02-15T09:47:37.968Z,75.63
2023-02-15T09:50:36.651Z,184.93
2023-02-15T09:53:27.491Z,176.07
2023-02-15T09:56:21.209Z,310.17
2023-02-15T09:58:55.188Z,145.60
2023-02-15T10:01:51.501Z,140.07
2023-02-15T10:04:43.199Z,219.77
2023-02-15T10:07:20.733Z,597.50
2023-02-15T10:10:24.047Z,118.13
2023-02-15T10:13:05.669Z,90.10
2023-02-15T10:15:56.750Z,96.03
2023-02-15T10:18:50.528Z,108.55
2023-02-15T10:21:21.407Z,89.45
2023-02-15T10:24:23.727Z,116.45
2023-02-15T10:26:50.531Z,123.10
2023-02-15T10:29:33.312Z,123.95
2023-02-15T10:32:12.766Z,98.07
2023-02-15T10:34:44.421Z,329.25
2023-02-15T10:37:34.583Z,167.68
2023-02-15T10:40:20.466Z,178.88
2023-02-15T10:42:56.015Z,134.43
2023-02-15T10:45:32.289Z,117.93
2023-02-15T10:48:01.685Z,159.13
2023-02-15T10:50:54.023Z,106.68
2023-02-15T10:53:42.701Z,104.93
2023-02-15T10:56:34.733Z,102.90
2023-02-15T10:59:18.911Z,76.68
2023-02-15T11:01:59.221Z,103.03
2023-02-15T11:04:31.806Z,48.22
2023-02-15T11:07:04.667Z,58.85
2023-02-15T11:09:41.265Z,55.97
2023-02-15T11:12:14.424Z,48.60
2023-02-15T11:15:06.092Z,98.03
2023-02-15T11:17:40.024Z,46.65
2023-02-15T11:20:31.703Z,45.85
2023-02-15T11:22:59.992Z,56.35
2023-02-15T11:25:34.710Z,69.13
2023-02-15T11:28:10.959Z,57.78
2023-02-15T11:30:56.518Z,69.38
2023-02-15T11:33:45.604Z,55.83
2023-02-15T11:36:25.868Z,41.45
2023-02-15T11:39:00.504Z,47.28
2023-02-15T11:41:32.712Z,45.50
2023-02-15T11:44:13.851Z,50.33
2023-02-15T11:46:40.604Z,55.22
2023-02-15T11:49:34.457Z,51.08
2023-02-15T11:52:07.408Z,49.28
2023-02-15T11:54:37.142Z,59.20
2023-02-15T12:00:04.935Z,66.20
2023-02-15T12:02:34.276Z,48.30
2023-02-15T12:05:06.628Z,56.10
2023-02-15T12:07:46.166Z,66.50
2023-02-15T12:10:22.126Z,59.50
2023-02-15T12:12:48.860Z,60.70
2023-02-15T12:15:15.691Z,55.38
2023-02-15T12:17:55.459Z,55.85
2023-02-15T12:20:35.684Z,55.33
2023-02-15T12:23:08.107Z,62.00
2023-02-15T12:25:38.921Z,74.20
2023-02-15T12:28:40.649Z,85.10
2023-02-15T12:31:27.804Z,61.50
2023-02-15T12:33:57.808Z,67.55
2023-02-15T12:36:33.363Z,63.83
2023-02-15T12:39:30.967Z,78.13
2023-02-15T12:42:04.826Z,87.75
2023-02-15T12:44:36.899Z,72.75
2023-02-15T12:47:20.034Z,77.03
2023-02-15T12:50:18.057Z,67.68
2023-02-15T12:52:49.954Z,66.32
2023-02-15T12:55:21.270Z,69.68
2023-02-15T12:57:48.300Z,73.10
2023-02-15T13:00:21.765Z,87.28
2023-02-15T13:02:52.294Z,102.43
2023-02-15T13:05:41.390Z,87.55
2023-02-15T13:08:22.423Z,77.32
2023-02-15T13:11:07.486Z,75.65
2023-02-15T13:13:37.239Z,78.32
2023-02-15T13:18:38.664Z,128.38
2023-02-15T13:21:27.609Z,88.32
2023-02-15T13:24:19.504Z,92.65
2023-02-15T13:26:48.088Z,163.85
2023-02-15T13:29:28.913Z,398.35
2023-02-15T13:31:58.363Z,92.72
2023-02-15T13:34:31.241Z,105.32
2023-02-15T13:37:17.833Z,85.05
2023-02-15T13:40:25.508Z,84.57
2023-02-15T13:43:03.218Z,115.97
2023-02-15T13:45:39.481Z,96.82
2023-02-15T13:48:45.763Z,87.78
2023-02-15T13:51:31.221Z,131.70
2023-02-15T13:53:59.505Z,483.33
2023-02-15T13:56:28.947Z,128.93
2023-02-15T13:59:12.009Z,146.43
2023-02-15T14:02:06.956Z,97.68
2023-02-15T14:04:51.706Z,92.68
2023-02-15T14:07:34.103Z,144.73
2023-02-15T14:10:27.126Z,115.25
2023-02-15T14:13:18.174Z,316.85
2023-02-15T14:16:01.408Z,565.78
2023-02-15T14:18:36.593Z,176.25
2023-02-15T14:21:31.428Z,178.80
2023-02-15T14:24:34.518Z,404.13
2023-02-15T14:27:17.836Z,111.85
2023-02-15T14:29:58.477Z,145.52
2023-02-15T14:32:45.521Z,124.97
2023-02-15T14:35:18.812Z,292.77
2023-02-15T14:38:14.876Z,211.23
2023-02-15T14:41:10.606Z,201.63
2023-02-15T14:43:56.445Z,242.50
2023-02-15T14:46:35.184Z,111.05
2023-02-15T14:49:12.186Z,258.97
2023-02-15T14:51:44.784Z,433.77
2023-02-15T14:54:18.489Z,216.10
2023-02-15T14:56:46.624Z,104.78
2023-02-15T14:59:20.447Z,143.98
2023-02-15T15:01:59.141Z,175.60
2023-02-15T15:04:30.768Z,168.73
2023-02-15T15:07:19.925Z,206.75
2023-02-15T15:09:58.195Z,270.45
2023-02-15T15:12:24.737Z,98.70
2023-02-15T15:14:55.259Z,204.45
2023-02-15T15:17:33.956Z,144.48
2023-02-15T15:20:31.743Z,196.85
2023-02-15T15:23:21.972Z,133.35
2023-02-15T15:26:18.569Z,189.30
2023-02-15T15:28:45.121Z,88.85
2023-02-15T15:31:23.655Z,96.30
2023-02-15T15:34:02.893Z,137.20
2023-02-15T15:37:06.051Z,101.68
2023-02-15T15:40:05.685Z,97.85
2023-02-15T15:45:37.144Z,86.95
2023-02-15T15:48:30.135Z,103.03
2023-02-15T15:51:04.530Z,172.98
2023-02-15T15:53:38.466Z,211.75
2023-02-15T15:56:11.222Z,120.13
2023-02-15T15:58:42.464Z,146.77
2023-02-15T16:01:12.457Z,228.82
2023-02-15T16:03:39.169Z,137.63
2023-02-15T16:06:06.466Z,100.43
2023-02-15T16:08:36.376Z,133.77
2023-02-15T16:11:25.227Z,176.40
2023-02-15T16:13:52.887Z,113.05
2023-02-15T16:16:29.050Z,107.38
2023-02-15T16:18:58.763Z,130.20
2023-02-15T16:21:32.985Z,123.00
2023-02-15T16:24:22.656Z,121.88
2023-02-15T16:29:31.004Z,122.28
2023-02-15T16:32:02.848Z,108.65
2023-02-15T16:34:33.362Z,104.57
2023-02-15T16:37:19.781Z,137.65
2023-02-15T16:39:49.104Z,130.40
2023-02-15T16:42:17.542Z,129.63
2023-02-15T16:44:52.307Z,140.90
2023-02-15T16:47:25.077Z,152.98
2023-02-15T16:49:54.275Z,143.45
2023-02-15T16:52:26.561Z,133.13
2023-02-15T16:55:00.383Z,156.10
2023-02-15T16:57:32.120Z,106.40
2023-02-15T17:00:06.906Z,174.80
2023-02-15T17:02:55.155Z,308.80
2023-02-15T17:05:22.746Z,123.72
2023-02-15T17:07:52.680Z,132.75
2023-02-15T17:10:37.766Z,111.03
2023-02-15T17:13:11.766Z,129.43
2023-02-15T17:15:41.695Z,146.05
2023-02-15T17:18:13.881Z,88.20
2023-02-15T17:20:42.847Z,110.35
2023-02-15T17:23:43.139Z,192.93
2023-02-15T17:26:27.191Z,128.43
2023-02-15T17:28:59.692Z,85.22
2023-02-15T17:31:32.280Z,98.70
2023-02-15T17:34:00.754Z,125.70
2023-02-15T17:36:30.251Z,101.10
2023-02-15T17:38:59.728Z,141.10
2023-02-15T17:41:28.222Z,97.63
2023-02-15T17:43:55.166Z,201.50
2023-02-15T17:46:25.008Z,93.28
2023-02-15T17:48:53.410Z,118.30
2023-02-15T17:51:21.501Z,93.10
2023-02-15T17:54:07.210Z,91.50
2023-02-15T17:56:35.079Z,86.30
2023-02-15T17:59:01.834Z,88.13
2023-02-15T18:01:47.094Z,118.68
2023-02-15T18:04:34.600Z,103.68
2023-02-15T18:07:19.798Z,116.32
2023-02-15T18:10:04.969Z,146.52
2023-02-15T18:12:34.395Z,104.30
2023-02-15T18:15:01.590Z,118.38
2023-02-15T18:17:39.848Z,98.95
2023-02-15T18:20:28.799Z,100.07
2023-02-15T18:22:55.538Z,93.68
2023-02-15T18:25:25.516Z,97.53
2023-02-15T18:27:54.950Z,111.38
2023-02-15T18:32:52.485Z,120.78
2023-02-15T18:35:22.761Z,139.55
2023-02-15T18:37:50.438Z,116.03
2023-02-15T18:40:19.672Z,136.55
2023-02-15T18:42:49.712Z,100.97
2023-02-15T18:45:28.346Z,118.07
2023-02-15T18:47:57.942Z,122.45
2023-02-15T18:50:32.597Z,113.47
2023-02-15T18:52:59.231Z,123.35
2023-02-15T18:55:27.917Z,113.35
2023-02-15T18:57:57.112Z,119.05
2023-02-15T19:00:32.468Z,112.35
2023-02-15T19:03:00.304Z,118.68
2023-02-15T19:05:29.301Z,120.00
2023-02-15T19:07:58.547Z,112.40
2023-02-15T19:10:27.790Z,124.57
2023-02-15T19:12:55.967Z,120.88
2023-02-15T19:15:24.064Z,113.03
2023-02-15T19:17:51.937Z,107.60
2023-02-15T19:20:24.745Z,126.85
2023-02-15T19:22:53.814Z,120.90
2023-02-15T19:25:24.960Z,138.13
2023-02-15T19:27:53.275Z,118.30
2023-02-15T19:30:27.801Z,125.35
2023-02-15T19:32:54.427Z,121.45
2023-02-15T19:35:23.613Z,121.20
2023-02-15T19:37:54.375Z,119.32
2023-02-15T19:40:26.732Z,136.10
2023-02-15T19:42:53.852Z,119.15
2023-02-15T19:45:23.611Z,127.28
2023-02-15T19:50:20.642Z,121.45
2023-02-15T19:52:47.964Z,111.07
2023-02-15T19:55:26.685Z,127.57
2023-02-15T19:57:54.741Z,122.43
2023-02-15T20:00:25.706Z,119.45
2023-02-15T20:02:53.435Z,128.13
2023-02-15T20:05:20.811Z,112.38
2023-02-15T20:07:52.645Z,122.07
2023-02-15T20:10:24.399Z,116.35
2023-02-15T20:12:51.016Z,129.43
2023-02-15T20:15:29.069Z,118.80
2023-02-15T20:17:57.393Z,135.60
2023-02-15T20:20:29.011Z,118.25
2023-02-15T20:22:55.963Z,122.47
2023-02-15T20:25:27.744Z,110.55
2023-02-15T20:27:55.330Z,119.80
2023-02-15T20:30:26.134Z,115.18
2023-02-15T20:32:52.775Z,124.45
2023-02-15T20:35:23.500Z,126.50
2023-02-15T20:37:53.437Z,134.52
2023-02-15T20:40:21.525Z,144.50
2023-02-15T20:42:48.634Z,157.70
2023-02-15T20:45:16.723Z,123.93
2023-02-15T20:47:48.252Z,133.70
2023-02-15T20:50:20.217Z,121.32
2023-02-15T20:52:49.125Z,156.73
2023-02-15T20:55:18.710Z,110.10
2023-02-15T20:57:46.275Z,126.30
2023-02-15T21:00:15.440Z,113.20
2023-02-15T21:02:42.455Z,96.55
2023-02-15T21:05:35.386Z,98.97
2023-02-15T21:08:02.241Z,99.63
2023-02-15T21:10:32.793Z,119.65
2023-02-15T21:13:04.522Z,101.20
2023-02-15T21:15:36.202Z,115.40
2023-02-15T21:18:06.306Z,114.50
2023-02-15T21:20:34.534Z,97.05
2023-02-15T21:23:04.869Z,97.15
2023-02-15T21:25:36.374Z,102.15
2023-02-15T21:28:04.221Z,88.57
2023-02-15T21:30:30.882Z,97.28
2023-02-15T21:32:57.580Z,100.45
2023-02-15T21:35:24.173Z,83.88
2023-02-15T21:37:53.035Z,93.30
2023-02-15T21:40:21.543Z,87.80
2023-02-15T21:43:07.382Z,90.60
2023-02-15T21:45:52.561Z,85.55
2023-02-15T21:48:21.765Z,82.72
2023-02-15T21:51:08.642Z,87.22
2023-02-15T21:53:45.848Z,85.40
2023-02-15T21:56:16.290Z,89.97
2023-02-15T21:58:43.329Z,94.63
2023-02-15T22:01:28.919Z,86.78
2023-02-15T22:03:57.851Z,116.70
2023-02-15T22:06:24.857Z,113.88
2023-02-15T22:08:51.555Z,132.07
2023-02-15T22:11:22.570Z,146.80
2023-02-15T22:13:50.336Z,89.40
2023-02-15T22:16:22.542Z,90.95
2023-02-15T22:18:49.526Z,103.55
2023-02-15T22:21:19.432Z,205.40
2023-02-15T22:23:47.118Z,229.70
2023-02-15T22:26:21.598Z,123.38
2023-02-15T22:28:48.368Z,109.20
2023-02-15T22:31:19.928Z,147.55
2023-02-15T22:33:49.627Z,121.75
2023-02-15T22:38:51.213Z,82.63
2023-02-15T22:41:18.205Z,82.97
2023-02-15T22:43:46.312Z,94.18
2023-02-15T22:46:22.360Z,79.75
2023-02-15T22:48:49.534Z,81.15
2023-02-15T22:51:20.053Z,72.22
2023-02-15T22:53:49.535Z,72.35
2023-02-15T22:56:20.381Z,95.20
2023-02-15T22:58:50.446Z,82.18
2023-02-15T23:01:29.939Z,115.35
2023-02-15T23:03:56.575Z,102.53
2023-02-15T23:06:23.331Z,92.10
2023-02-15T23:08:50.038Z,84.03
2023-02-15T23:11:18.244Z,79.85
2023-02-15T23:13:47.108Z,81.43
2023-02-15T23:16:15.815Z,87.70
2023-02-15T23:18:45.183Z,72.87
2023-02-15T23:21:20.674Z,74.35
2023-02-15T23:24:08.853Z,90.35
2023-02-15T23:26:35.534Z,91.28
2023-02-15T23:29:03.772Z,101.53
2023-02-15T23:31:33.507Z,87.30
2023-02-15T23:36:39.094Z,117.57
2023-02-15T23:39:31.028Z,135.02
2023-02-15T23:41:59.710Z,108.35
2023-02-15T23:44:26.555Z,106.30
2023-02-15T23:46:53.412Z,96.15
2023-02-15T23:49:20.109Z,90.35
2023-02-15T23:51:49.971Z,117.20
2023-02-15T23:54:18.384Z,112.88
2023-02-15T23:56:47.237Z,120.35
2023-02-15T23:59:22.877Z,91.10
